Flight Track Log - Related Links

Times and Time Zones

All times are in EDT time to prevent confusion due to time zone crossing. See the SKW5638 flight status page for this flight to view local times or setup timezone preferences in your user account.

Time Position Orientation Groundspeed Altitude Reporting Facility
EDT Latitude Longitude Course Direction KTS MPH feet Rate Location/Type
Tue 07:26:20 PM 37.6333 -122.4000 208° Southwest 129 148 1,600  Level Northern TRACON
Tue 07:27:20 PM 37.6500 -122.4500 293° West 164 189 3,000 1,350 Climbing Northern TRACON
Tue 07:28:20 PM 37.6333 -122.5000 247° West 216 249 4,300 1,286 Climbing Northern TRACON
Tue 07:28:58 PM 37.6078 -122.5003 180° South 187 215 5,100 1,455 Climbing Oakland Center
Tue 07:29:00 PM 37.4877 -122.4561 202° Southwest  Level FlightAware
Tue 07:29:59 PM 37.5511 -122.4961 177° South 204 235 6,700  Level Oakland Center
Tue 07:30:00 PM 37.4015 -122.4910 202° Southwest  Level FlightAware
Tue 07:31:00 PM 37.3162 -122.5392 208° Southwest  Level FlightAware
Tue 07:31:00 PM 37.4839 -122.4867 174° South 209 241 8,500  Level Oakland Center
Tue 07:32:01 PM 37.4239 -122.4775 173° South 213 245 10,100 1,574 Climbing Oakland Center
Tue 07:33:02 PM 37.3592 -122.4728 177° South 217 250 11,700 1,426 Climbing Oakland Center
Tue 07:34:03 PM 37.3017 -122.4669 175° South 218 251 13,000 1,377 Climbing Oakland Center
Tue 07:35:04 PM 37.2358 -122.4575 173° South 223 257 14,500 1,317 Climbing Oakland Center
Tue 07:36:06 PM 37.1725 -122.4506 175° South 226 260 15,700 1,024 Climbing Oakland Center
Tue 07:37:07 PM 37.1108 -122.4453 176° South 232 267 16,600 984 Climbing Oakland Center
Tue 07:38:08 PM 37.0411 -122.3947 150° Southeast 248 285 17,700 984 Climbing Oakland Center
Tue 07:39:09 PM 36.9861 -122.3461 145° Southeast 245 282 18,600 738 Climbing Oakland Center
Tue 07:40:10 PM 36.9281 -122.2969 146° Southeast 249 287 19,200 639 Climbing Oakland Center
Tue 07:41:11 PM 36.8683 -122.2447 145° Southeast 258 297 19,900 689 Climbing Oakland Center
Tue 07:42:12 PM 36.8039 -122.1875 145° Southeast 266 306 20,600 683 Climbing Oakland Center
Tue 07:43:14 PM 36.7461 -122.1378 145° Southeast 269 310 21,300 634 Climbing Oakland Center
Tue 07:44:15 PM 36.6858 -122.0831 144° Southeast 268 308 21,900 639 Climbing Oakland Center
Tue 07:45:16 PM 36.6250 -122.0289 144° Southeast 269 310 22,600 541 Climbing Oakland Center
Tue 07:46:17 PM 36.5631 -121.9758 145° Southeast 270 311 23,000 197 Climbing Oakland Center
Tue 07:47:18 PM 36.4961 -121.9178 145° Southeast 289 333 23,000  Level Oakland Center
Tue 07:48:19 PM 36.4150 -121.8431 143° Southeast 301 346 23,000  Level Oakland Center
Tue 07:49:21 PM 36.3436 -121.7822 146° Southeast 306 352 23,000  Level Oakland Center
Tue 07:50:22 PM 36.2714 -121.7192 145° Southeast 314 361 23,000  Level Oakland Center
Tue 07:51:23 PM 36.2025 -121.6494 141° Southeast 319 367 23,000  Level Oakland Center
Tue 07:52:24 PM 36.1308 -121.5822 143° Southeast 321 369 23,000  Level Oakland Center
Tue 07:53:25 PM 36.0603 -121.5139 142° Southeast 323 372 23,000  Level Oakland Center
Tue 07:54:27 PM 35.9897 -121.4467 142° Southeast 321 369 23,000  Level Oakland Center
Tue 07:55:28 PM 35.9183 -121.3792 143° Southeast 323 372 23,000  Level Oakland Center
Tue 07:56:29 PM 35.8472 -121.3125 143° Southeast 322 371 23,000  Level Oakland Center
Tue 07:57:30 PM 35.7761 -121.2456 143° Southeast 323 372 23,000  Level Oakland Center
Tue 07:58:31 PM 35.6914 -121.1656 143° Southeast 321 369 23,000  Level Oakland Center
Tue 07:59:32 PM 35.6203 -121.0983 142° Southeast 322 371 23,000  Level Oakland Center
Tue 08:00:33 PM 35.5494 -121.0319 143° Southeast 322 371 23,000  Level Oakland Center
Tue 08:01:34 PM 35.4781 -120.9644 142° Southeast 324 373 23,000  Level Oakland Center
Tue 08:02:36 PM 35.4064 -120.8986 143° Southeast 323 372 23,000  Level Oakland Center
Tue 08:03:37 PM 35.3361 -120.8325 142° Southeast 321 369 23,000 -330 Level Oakland Center
Tue 08:04:07 PM 35.3044 -120.8069 147° Southeast 323 372 22,500 -1,174 Descending Los Center
Tue 08:05:09 PM 35.2114 -120.7178 142° Southeast 347 399 21,200 -1,065 Descending Los Center
Tue 08:06:11 PM 35.1319 -120.6461 144° Southeast 353 406 20,300 -919 Descending Los Center
Tue 08:07:13 PM 35.0536 -120.5736 143° Southeast 353 406 19,300 -1,016 Descending Los Center
Tue 08:08:15 PM 34.9778 -120.5025 142° Southeast 344 396 18,200 -1,258 Descending Los Center
Tue 08:09:17 PM 34.9044 -120.4333 142° Southeast 333 383 16,700 -1,415 Descending Los Center
Tue 08:10:18 PM 34.8325 -120.3653 142° Southeast 326 375 15,300 -1,366 Descending Los Center
Tue 08:11:20 PM 34.7611 -120.3008 143° Southeast 320 368 13,900 -1,790 Descending Los Center
Tue 08:12:22 PM 34.6747 -120.2253 144° Southeast 307 353 11,600 -2,093 Descending Los Center
Tue 08:12:46 PM 34.6481 -120.2025 145° Southeast 303 349 10,900 -1,760 Descending Los Center
Tue 08:13:37 PM 34.5994 -120.1525 140° Southeast 297 342 9,400 -1,632 Descending Los Center
Tue 08:14:51 PM 34.5236 -120.0844 144° Southeast 267 307 7,500 -1,557 Descending Los Center
Tue 08:15:48 PM 34.4700 -120.0403 146° Southeast 241 277 6,000 -1,576 Descending Los Center
Tue 08:16:49 PM 34.4183 -119.9917 142° Southeast 243 280 4,400 -1,291 Descending Los Center
Tue 08:17:07 PM 34.4142 -119.9872 139° Southeast 242 278 4,300 -1,300 Descending Los Center
Tue 08:17:49 PM 34.3819 -119.9253 122° Southeast 230 265 3,100 -1,452 Descending Los Center
Tue 08:18:09 PM 34.3725 -119.9106 128° Southeast 235 270 2,800 -984 Descending Los Center
Tue 08:18:50 PM 34.3764 -119.8514 85° East 210 242 2,100 -677 Descending Los Center
Tue 08:19:11 PM 34.3764 -119.8369 90° East 222 255 2,100 -492 Level Los Center
Tue 08:19:51 PM 34.3883 -119.7981 70° East 177 204 1,600 -677 Descending Los Center
Tue 08:20:13 PM 34.3994 -119.7958 North 200 230 1,400 -984 Descending Los Center
Tue 08:20:52 PM 34.4269 -119.8064 342° North 140 161 600 -774 Descending Los Center
Tue 08:21:15 PM 34.4378 -119.8103 344° North 168 193 600  Level Los Center

Login

Don't have an account? Register now (free) for customized features, flight alerts, and more!